Weather History for Cushing, OK

Change the Weather History Date:

Thursday, January 2, 2014

  Actual Average Record
Temperature  
Mean Temperature 24 °F -  
Max Temperature 37 °F 45 °F 68 °F (1949)
Min Temperature 12 °F 23 °F 2 °F (1979)
Degree Days  
Heating Degree Days 40    
Moisture  
Dew Point 17 °F    
Average Humidity 78    
Maximum Humidity 93    
Minimum Humidity 56    
Precipitation  
Precipitation 0.00 in - - ()
Sea Level Pressure  
Sea Level Pressure 30.43 in    
Wind  
Wind Speed 7 mph (NNW)    
Max Wind Speed 15 mph    
Max Gust Speed 24 mph    
Visibility 10 miles    
Events      
Averages and records for this station are not official NWS values.
T = Trace of Precipitation, MM = Missing Value Source: NWS Daily Summary

Daily Weather History Graph

Daily Weather History Graph

Search for Another Location

Airport:

Trip Planner

Search our weather history database for the weather conditions in past years. The results will help you decide how hot, cold, wet, or windy it might be!

Date:

Astronomy

Jan. 02, 2014 Rise Set
Actual Time 7:37 AM CST 5:24 PM CST
Civil Twilight 7:09 AM CST 5:53 PM CST
Nautical Twilight 6:37 AM CST 6:25 PM CST
Astronomical Twilight 6:06 AM CST 6:56 PM CST
Moon 8:23 AM CST (1/2) 7:18 PM CST (1/2)
Length of Visible Light 10h 43m
Length of Day
9h 47m
Waxing Crescent, 3% of the Moon is Illuminated
Jan 2
Waxing Crescent
Jan 7
First Quarter
Jan 15
Full
Jan 23
Last Quarter
Jan 30
New

Hourly Weather History & Observations

Time (CST) Temp. Windchill Dew Point Humidity Pressure Visibility Wind Dir Wind Speed Gust Speed Precip Events Conditions
12:15 AM 19.4 °F 6.0 °F 15.8 °F 86% 30.32 in 10.0 mi NNW 13.8 mph 20.7 mph N/A   Mostly Cloudy
12:35 AM 17.6 °F 3.7 °F 15.8 °F 93% 30.33 in 10.0 mi North 13.8 mph 24.2 mph N/A   Mostly Cloudy
12:55 AM 17.6 °F 3.7 °F 15.8 °F 93% 30.33 in 10.0 mi North 13.8 mph 19.6 mph N/A   Mostly Cloudy
1:15 AM 17.6 °F 3.2 °F 14.0 °F 86% 30.34 in 10.0 mi North 15.0 mph 21.9 mph N/A   Clear
1:35 AM 17.6 °F 3.7 °F 14.0 °F 86% 30.35 in 10.0 mi North 13.8 mph 20.7 mph N/A   Clear
1:55 AM 17.6 °F 5.0 °F 14.0 °F 86% 30.36 in 10.0 mi North 11.5 mph - N/A   Clear
2:15 AM 17.6 °F 5.7 °F 14.0 °F 86% 30.37 in 10.0 mi NNW 10.4 mph 17.3 mph N/A   Clear
2:35 AM 17.6 °F 5.0 °F 14.0 °F 86% 30.38 in 10.0 mi NNW 11.5 mph 18.4 mph N/A   Clear
2:55 AM 17.6 °F 6.4 °F 14.0 °F 86% 30.38 in 10.0 mi North 9.2 mph - N/A   Clear
3:15 AM 17.6 °F 8.2 °F 14.0 °F 86% 30.39 in 10.0 mi North 6.9 mph - N/A   Clear
3:35 AM 17.6 °F 4.3 °F 14.0 °F 86% 30.40 in 10.0 mi North 12.7 mph 17.3 mph N/A   Clear
3:55 AM 15.8 °F 8.6 °F 14.0 °F 93% 30.40 in 10.0 mi NNW 4.6 mph - N/A   Clear
4:15 AM 15.8 °F 4.2 °F 14.0 °F 93% 30.40 in 10.0 mi North 9.2 mph 16.1 mph N/A   Clear
4:35 AM 15.8 °F 6.1 °F 12.2 °F 86% 30.40 in 10.0 mi NNW 6.9 mph - N/A   Clear
4:55 AM 14.0 °F 6.5 °F 12.2 °F 93% 30.41 in 10.0 mi NNW 4.6 mph - N/A   Clear
5:15 AM 14.0 °F 5.1 °F 12.2 °F 93% 30.43 in 10.0 mi NNW 5.8 mph - N/A   Clear
5:35 AM 14.0 °F 2.9 °F 12.2 °F 93% 30.45 in 10.0 mi NNW 8.1 mph - N/A   Clear
5:55 AM 14.0 °F 5.1 °F 12.2 °F 93% 30.45 in 10.0 mi NNW 5.8 mph - N/A   Clear
6:15 AM 14.0 °F 5.1 °F 12.2 °F 93% 30.44 in 10.0 mi NNW 5.8 mph - N/A   Clear
6:35 AM 12.2 °F 2.9 °F 10.4 °F 92% 30.45 in 10.0 mi NW 5.8 mph - N/A   Clear
6:55 AM 12.2 °F - 10.4 °F 92% 30.45 in 10.0 mi Calm Calm - N/A   Clear
7:15 AM 12.2 °F - 10.4 °F 92% 30.45 in 10.0 mi Calm Calm - N/A   Clear
7:35 AM 12.2 °F - 10.4 °F 92% 30.45 in 10.0 mi Calm Calm - N/A   Clear
7:55 AM 12.2 °F 4.3 °F 10.4 °F 92% 30.45 in 10.0 mi NW 4.6 mph - N/A   Clear
8:15 AM 14.0 °F 5.1 °F 12.2 °F 93% 30.46 in 10.0 mi NW 5.8 mph - N/A   Clear
8:35 AM 15.8 °F 8.6 °F 14.0 °F 93% 30.46 in 10.0 mi NW 4.6 mph - N/A   Clear
8:55 AM 17.6 °F 9.3 °F 14.0 °F 86% 30.48 in 10.0 mi NW 5.8 mph - N/A   Clear
9:15 AM 19.4 °F 11.5 °F 14.0 °F 80% 30.49 in 10.0 mi NW 5.8 mph - N/A   Clear
9:35 AM 21.2 °F 13.6 °F 15.8 °F 80% 30.50 in 10.0 mi NNW 5.8 mph - N/A   Clear
9:55 AM 21.2 °F 16.4 °F 15.8 °F 80% 30.50 in 10.0 mi NW 3.5 mph - N/A   Clear
10:15 AM 23.0 °F 18.4 °F 17.6 °F 80% 30.50 in 10.0 mi NNW 3.5 mph - N/A   Clear
10:35 AM 24.8 °F 17.9 °F 15.8 °F 69% 30.50 in 10.0 mi North 5.8 mph - N/A   Clear
10:55 AM 26.6 °F - 17.6 °F 69% 30.50 in 10.0 mi Calm Calm - N/A   Clear
11:15 AM 28.4 °F - 19.4 °F 69% 30.50 in 10.0 mi Calm Calm - N/A   Clear
11:35 AM 30.2 °F 25.4 °F 19.4 °F 64% 30.50 in 10.0 mi NNW 4.6 mph - N/A   Clear
11:55 AM 30.2 °F 25.4 °F 19.4 °F 64% 30.48 in 10.0 mi North 4.6 mph - N/A   Clear
12:15 PM 32.0 °F 28.7 °F 19.4 °F 60% 30.47 in 10.0 mi NW 3.5 mph - N/A   Clear
12:35 PM 32.0 °F 26.4 °F 21.2 °F 64% 30.45 in 10.0 mi NNW 5.8 mph - N/A   Clear
12:55 PM 33.8 °F 29.6 °F 21.2 °F 60% 30.44 in 10.0 mi North 4.6 mph - N/A   Clear
1:15 PM 33.8 °F 30.8 °F 21.2 °F 60% 30.43 in 10.0 mi North 3.5 mph - N/A   Clear
1:35 PM 33.8 °F 29.6 °F 21.2 °F 60% 30.43 in 10.0 mi North 4.6 mph - N/A   Clear
1:55 PM 35.6 °F 32.8 °F 21.2 °F 56% 30.42 in 10.0 mi NW 3.5 mph - N/A   Clear
2:15 PM 35.6 °F 30.7 °F 23.0 °F 60% 30.42 in 10.0 mi WNW 5.8 mph - N/A   Clear
2:35 PM 35.6 °F - 23.0 °F 60% 30.41 in 10.0 mi Calm Calm - N/A   Clear
2:55 PM 37.4 °F - 23.0 °F 56% 30.41 in 10.0 mi Calm Calm - N/A   Clear
3:15 PM 37.4 °F 34.9 °F 23.0 °F 56% 30.41 in 10.0 mi North 3.5 mph - N/A   Clear
3:35 PM 37.4 °F 34.9 °F 23.0 °F 56% 30.41 in 10.0 mi NNW 3.5 mph - N/A   Clear
3:55 PM 37.4 °F - 23.0 °F 56% 30.40 in 10.0 mi Calm Calm - N/A   Clear
4:15 PM 35.6 °F - 23.0 °F 60% 30.40 in 10.0 mi Calm Calm - N/A   Clear
4:35 PM 35.6 °F - 23.0 °F 60% 30.41 in 10.0 mi Calm Calm - N/A   Clear
4:55 PM 35.6 °F - 23.0 °F 60% 30.41 in 10.0 mi Calm Calm - N/A   Clear
5:15 PM 33.8 °F - 21.2 °F 60% 30.40 in 10.0 mi Calm Calm - N/A   Clear
5:35 PM 32.0 °F - 21.2 °F 64% 30.41 in 10.0 mi Calm Calm - N/A   Clear
5:55 PM 30.2 °F - 21.2 °F 69% 30.41 in 10.0 mi Calm Calm - N/A   Clear
6:15 PM 28.4 °F - 21.2 °F 74% 30.41 in 10.0 mi Calm Calm - N/A   Clear
6:35 PM 26.6 °F - 19.4 °F 74% 30.41 in 10.0 mi Calm Calm - N/A   Clear
6:55 PM 24.8 °F - 17.6 °F 74% 30.42 in 10.0 mi Calm Calm - N/A   Clear
7:15 PM 23.0 °F - 14.0 °F 68% 30.43 in 10.0 mi Calm Calm - N/A   Clear
7:35 PM 21.2 °F - 17.6 °F 86% 30.43 in 10.0 mi Calm Calm - N/A   Clear
7:55 PM 21.2 °F - 15.8 °F 80% 30.43 in 10.0 mi Calm Calm - N/A   Clear
8:15 PM 23.0 °F - 19.4 °F 86% 30.43 in 10.0 mi Calm Calm - N/A   Clear
8:35 PM 26.6 °F 22.6 °F 19.4 °F 74% 30.43 in 10.0 mi SE 3.5 mph - N/A   Clear
8:55 PM 26.6 °F 22.6 °F 19.4 °F 74% 30.43 in 10.0 mi ESE 3.5 mph - N/A   Clear
9:15 PM 26.6 °F 22.6 °F 19.4 °F 74% 30.43 in 10.0 mi SE 3.5 mph - N/A   Clear
9:35 PM 26.6 °F 21.2 °F 19.4 °F 74% 30.43 in 10.0 mi SE 4.6 mph - N/A   Clear
9:55 PM 24.8 °F - 19.4 °F 80% 30.43 in 10.0 mi Calm Calm - N/A   Clear
10:15 PM 24.8 °F 19.1 °F 19.4 °F 80% 30.43 in 10.0 mi SE 4.6 mph - N/A   Clear
10:35 PM 23.0 °F 18.4 °F 19.4 °F 86% 30.44 in 10.0 mi SSE 3.5 mph - N/A   Clear
10:55 PM 23.0 °F - 19.4 °F 86% 30.44 in 10.0 mi Calm Calm - N/A   Clear
11:15 PM 21.2 °F - 17.6 °F 86% 30.44 in 10.0 mi Calm Calm - N/A   Clear
11:35 PM 23.0 °F - 19.4 °F 86% 30.43 in 10.0 mi Calm Calm - N/A   Clear
11:55 PM 23.0 °F - 17.6 °F 80% 30.43 in 10.0 mi Calm Calm - N/A   Clear